Time;durP1;ratioP1;P1;durP2;ratioP2;P2;SDS_P1;SDS_P2;PMS_P1;PMS_P2;Temp;Humidity;BMP_temperature;BMP_pressure;BME280_temperature;BME280_humidity;BME280_pressure;Samples;Min_cycle;Max_cycle;Signal;HPM_P1;HPM_P2
2021/04/21 00:01:29;;;;;;;12.37;11.07;;;;;;;;;;5086582;28;20251;-61
2021/04/21 00:03:55;;;;;;;12.10;11.00;;;;;;;;;;5075908;28;20172;-61
2021/04/21 00:06:22;;;;;;;12.13;10.93;;;;;;;;;;5088267;28;20726;-61
2021/04/21 00:08:48;;;;;;;12.07;10.87;;;;;;;;;;5092387;28;20259;-61
2021/04/21 00:11:16;;;;;;;11.80;10.67;;;;;;;;;;5090650;28;20255;-61
2021/04/21 00:13:43;;;;;;;12.20;10.90;;;;;;;;;;5087453;28;20188;-62
2021/04/21 00:16:10;;;;;;;12.03;10.83;;;;;;;;;;5082655;28;20180;-61
2021/04/21 00:18:36;;;;;;;12.60;10.47;;;;;;;;;;5063575;28;20246;-61
2021/04/21 00:21:04;;;;;;;11.53;10.33;;;;;;;;;;5092935;28;20185;-63
2021/04/21 00:23:32;;;;;;;11.93;10.83;;;;;;;;;;5087546;28;20272;-62
2021/04/21 00:25:59;;;;;;;12.97;11.67;;;;;;;;;;5091651;28;20559;-62
2021/04/21 00:28:30;;;;;;;13.80;11.57;;;;;;;;;;5048639;28;20176;-61
2021/04/21 00:30:57;;;;;;;13.37;11.57;;;;;;;;;;5083338;28;20232;-61
2021/04/21 00:33:23;;;;;;;12.30;10.97;;;;;;;;;;5087241;28;20181;-61
2021/04/21 00:35:51;;;;;;;11.70;10.50;;;;;;;;;;5080325;28;20187;-61
2021/04/21 00:38:18;;;;;;;12.13;10.87;;;;;;;;;;5088038;28;20180;-61
2021/04/21 00:40:44;;;;;;;12.97;10.80;;;;;;;;;;5080880;28;20187;-61
2021/04/21 00:43:12;;;;;;;11.33;10.23;;;;;;;;;;5089503;28;20195;-61
2021/04/21 00:45:42;;;;;;;11.93;10.73;;;;;;;;;;5091253;28;20219;-61
2021/04/21 00:48:22;;;;;;;11.87;10.63;;;;;;;;;;5091315;28;20186;-62
2021/04/21 00:50:53;;;;;;;13.33;10.77;;;;;;;;;;5088200;28;20256;-62
2021/04/21 00:53:32;;;;;;;12.10;10.80;;;;;;;;;;5072839;28;20294;-61
2021/04/21 00:56:07;;;;;;;12.13;10.83;;;;;;;;;;5086194;28;20228;-63
2021/04/21 00:58:39;;;;;;;11.90;10.63;;;;;;;;;;5072381;28;20653;-61
2021/04/21 01:01:06;;;;;;;12.93;11.63;;;;;;;;;;5085148;28;20186;-61
2021/04/21 01:03:32;;;;;;;12.43;10.87;;;;;;;;;;5091469;28;20188;-61
2021/04/21 01:06:02;;;;;;;14.00;11.33;;;;;;;;;;5081687;28;20235;-62
2021/04/21 01:08:32;;;;;;;13.37;11.53;;;;;;;;;;5091066;28;20326;-62
2021/04/21 01:11:04;;;;;;;13.50;12.27;;;;;;;;;;5092281;28;20567;-63
2021/04/21 01:13:34;;;;;;;13.00;11.80;;;;;;;;;;5084400;28;20231;-61
2021/04/21 01:16:00;;;;;;;12.33;11.13;;;;;;;;;;5081167;28;20274;-61
2021/04/21 01:18:27;;;;;;;11.77;10.67;;;;;;;;;;5086927;28;20187;-61
2021/04/21 01:21:13;;;;;;;11.73;10.53;;;;;;;;;;5072563;28;20606;-61
2021/04/21 01:23:52;;;;;;;11.90;10.70;;;;;;;;;;5030088;28;20199;-61
2021/04/21 01:26:34;;;;;;;14.63;12.20;;;;;;;;;;5084769;28;20217;-63
2021/04/21 01:29:01;;;;;;;14.07;12.67;;;;;;;;;;5072733;28;20738;-61
2021/04/21 01:31:29;;;;;;;13.40;11.83;;;;;;;;;;5077751;28;20214;-61
2021/04/21 01:33:56;;;;;;;12.27;11.07;;;;;;;;;;5076453;28;20502;-61
2021/04/21 01:36:23;;;;;;;12.43;11.27;;;;;;;;;;5083502;28;20216;-61
2021/04/21 01:38:51;;;;;;;12.17;10.97;;;;;;;;;;5077740;28;20263;-61
2021/04/21 01:41:20;;;;;;;12.13;10.90;;;;;;;;;;5071715;28;20179;-61
2021/04/21 01:43:52;;;;;;;12.73;10.80;;;;;;;;;;5072657;28;20184;-61
2021/04/21 01:46:19;;;;;;;13.10;11.80;;;;;;;;;;5088019;28;20203;-63
2021/04/21 01:48:47;;;;;;;12.10;10.90;;;;;;;;;;5073462;28;20168;-61
2021/04/21 01:51:22;;;;;;;12.90;11.50;;;;;;;;;;5079344;28;20176;-61
2021/04/21 01:53:51;;;;;;;12.47;11.13;;;;;;;;;;5088241;28;20183;-63
2021/04/21 01:56:32;;;;;;;12.03;10.67;;;;;;;;;;5069267;28;20237;-61
2021/04/21 01:59:09;;;;;;;13.80;11.33;;;;;;;;;;5074762;28;20234;-63
2021/04/21 02:01:42;;;;;;;12.63;11.00;;;;;;;;;;5089264;28;20187;-62
2021/04/21 02:04:28;;;;;;;11.53;10.43;;;;;;;;;;5089078;28;20581;-63
2021/04/21 02:06:54;;;;;;;12.50;11.20;;;;;;;;;;5084596;28;20676;-62
2021/04/21 02:09:39;;;;;;;12.30;11.00;;;;;;;;;;5089661;28;20426;-61
2021/04/21 02:12:15;;;;;;;12.53;11.30;;;;;;;;;;5088701;28;20175;-61
2021/04/21 02:14:56;;;;;;;11.63;10.43;;;;;;;;;;5075489;28;20187;-60
2021/04/21 02:17:57;;;;;;;11.90;10.80;;;;;;;;;;5083359;28;20183;-61
2021/04/21 02:20:30;;;;;;;11.90;10.80;;;;;;;;;;4995273;28;20240;-61
2021/04/21 02:23:08;;;;;;;13.23;11.40;;;;;;;;;;5076649;28;20219;-61
2021/04/21 02:25:52;;;;;;;12.37;11.17;;;;;;;;;;5072646;28;20557;-63
2021/04/21 02:28:37;;;;;;;11.80;10.60;;;;;;;;;;5077115;28;20192;-61
2021/04/21 02:31:03;;;;;;;12.07;10.80;;;;;;;;;;5062967;28;20542;-61
2021/04/21 02:33:40;;;;;;;13.27;11.40;;;;;;;;;;5088636;28;20190;-61
2021/04/21 02:36:10;;;;;;;11.80;10.60;;;;;;;;;;5082574;28;20190;-61
2021/04/21 02:38:59;;;;;;;11.83;10.63;;;;;;;;;;5089298;28;20659;-61
2021/04/21 02:41:30;;;;;;;12.80;11.20;;;;;;;;;;5089202;28;20182;-61
2021/04/21 02:43:56;;;;;;;13.37;11.67;;;;;;;;;;5077702;28;20176;-61
2021/04/21 02:46:26;;;;;;;12.30;11.10;;;;;;;;;;5067725;28;20218;-61
2021/04/21 02:49:08;;;;;;;12.90;11.60;;;;;;;;;;5080401;28;20169;-61
2021/04/21 02:51:52;;;;;;;13.60;12.30;;;;;;;;;;5082116;28;20183;-61
2021/04/21 02:54:25;;;;;;;11.97;10.73;;;;;;;;;;5051915;28;20177;-61
2021/04/21 02:57:00;;;;;;;11.87;10.67;;;;;;;;;;5086553;28;20275;-62
2021/04/21 02:59:41;;;;;;;12.07;10.87;;;;;;;;;;5068135;28;20214;-61
2021/04/21 03:02:10;;;;;;;11.70;10.50;;;;;;;;;;5088713;28;20172;-62
2021/04/21 03:04:40;;;;;;;12.27;10.23;;;;;;;;;;5090881;28;20244;-62
2021/04/21 03:07:09;;;;;;;12.23;11.03;;;;;;;;;;5088630;28;20160;-61
2021/04/21 03:09:54;;;;;;;13.33;10.70;;;;;;;;;;5089424;28;20631;-63
2021/04/21 03:12:28;;;;;;;13.10;11.83;;;;;;;;;;5080592;28;20188;-61
2021/04/21 03:15:11;;;;;;;13.60;11.15;;;;;;;;;;5087264;28;20917;-61
2021/04/21 03:17:39;;;;;;;11.30;10.10;;;;;;;;;;5082201;28;20233;-61
2021/04/21 03:20:16;;;;;;;13.77;10.40;;;;;;;;;;5068556;28;20179;-61
2021/04/21 03:22:44;;;;;;;11.73;10.63;;;;;;;;;;5076367;28;20202;-60
2021/04/21 03:25:15;;;;;;;11.87;10.60;;;;;;;;;;5079530;28;20199;-63
2021/04/21 03:27:46;;;;;;;12.07;10.87;;;;;;;;;;5085347;28;20171;-60
2021/04/21 03:30:13;;;;;;;12.53;11.23;;;;;;;;;;5076810;28;20176;-60
2021/04/21 03:32:41;;;;;;;12.30;11.13;;;;;;;;;;5077764;28;20231;-60
2021/04/21 03:35:08;;;;;;;12.23;11.00;;;;;;;;;;5089237;28;20186;-61
2021/04/21 03:37:49;;;;;;;12.60;11.40;;;;;;;;;;5083947;28;20184;-63
2021/04/21 03:40:16;;;;;;;13.43;12.13;;;;;;;;;;5071357;28;20187;-61
2021/04/21 03:42:43;;;;;;;12.27;10.97;;;;;;;;;;5084845;28;20531;-60
2021/04/21 03:45:09;;;;;;;12.10;11.00;;;;;;;;;;5081387;28;20196;-60
2021/04/21 03:47:35;;;;;;;11.43;10.33;;;;;;;;;;5076104;28;20262;-60
2021/04/21 03:50:04;;;;;;;12.33;11.03;;;;;;;;;;5083416;28;20208;-61
2021/04/21 03:52:33;;;;;;;14.10;12.30;;;;;;;;;;5078223;28;20326;-63
2021/04/21 03:54:59;;;;;;;12.40;11.20;;;;;;;;;;5089126;28;20229;-60
2021/04/21 03:57:27;;;;;;;12.77;11.47;;;;;;;;;;5062615;28;20215;-61
2021/04/21 03:59:54;;;;;;;13.90;12.50;;;;;;;;;;5082611;28;20272;-61
2021/04/21 04:02:22;;;;;;;13.73;12.40;;;;;;;;;;5087332;28;20199;-60
2021/04/21 04:04:49;;;;;;;13.83;12.20;;;;;;;;;;5080008;28;20196;-60
2021/04/21 04:07:17;;;;;;;12.90;11.70;;;;;;;;;;5088169;28;20188;-62
2021/04/21 04:09:46;;;;;;;13.33;11.93;;;;;;;;;;5091935;28;20176;-60
2021/04/21 04:12:13;;;;;;;12.80;11.47;;;;;;;;;;5088844;28;20180;-60
2021/04/21 04:14:40;;;;;;;14.40;12.53;;;;;;;;;;5086265;28;20213;-60
2021/04/21 04:17:07;;;;;;;12.20;11.00;;;;;;;;;;5064153;28;20192;-61
2021/04/21 04:19:38;;;;;;;15.20;12.13;;;;;;;;;;5061703;28;20186;-60
2021/04/21 04:22:05;;;;;;;13.17;11.67;;;;;;;;;;5087773;28;20183;-60
2021/04/21 04:24:44;;;;;;;13.20;11.87;;;;;;;;;;5084949;28;20210;-60
2021/04/21 04:27:15;;;;;;;13.17;11.80;;;;;;;;;;5092002;28;20213;-60
2021/04/21 04:29:42;;;;;;;14.00;11.50;;;;;;;;;;5082767;28;20261;-60
2021/04/21 04:32:11;;;;;;;14.07;12.47;;;;;;;;;;5086424;28;20207;-61
2021/04/21 04:34:37;;;;;;;13.10;11.77;;;;;;;;;;5093161;28;20191;-60
2021/04/21 04:37:03;;;;;;;14.43;12.93;;;;;;;;;;5073668;28;20184;-60
2021/04/21 04:39:29;;;;;;;12.83;11.53;;;;;;;;;;5068567;28;20275;-60
2021/04/21 04:41:55;;;;;;;12.80;11.50;;;;;;;;;;5078274;28;20612;-61
2021/04/21 04:44:22;;;;;;;14.13;12.83;;;;;;;;;;5079615;28;20191;-60
2021/04/21 04:46:53;;;;;;;15.87;13.20;;;;;;;;;;5085345;28;20700;-60
2021/04/21 04:49:19;;;;;;;13.27;11.87;;;;;;;;;;5082482;28;20276;-61
2021/04/21 04:51:46;;;;;;;13.83;12.43;;;;;;;;;;5069839;28;20648;-60
2021/04/21 04:54:14;;;;;;;16.00;13.20;;;;;;;;;;5072367;28;20188;-61
2021/04/21 04:56:42;;;;;;;14.93;12.90;;;;;;;;;;5088198;28;20250;-61
2021/04/21 04:59:08;;;;;;;14.97;13.33;;;;;;;;;;5092300;28;20172;-62
2021/04/21 05:01:53;;;;;;;15.50;13.60;;;;;;;;;;5061103;28;20179;-62
2021/04/21 05:04:23;;;;;;;16.23;12.60;;;;;;;;;;5091064;28;20635;-60
2021/04/21 05:06:54;;;;;;;14.10;12.67;;;;;;;;;;5082605;28;20267;-60
2021/04/21 05:09:22;;;;;;;16.17;14.40;;;;;;;;;;5073346;28;20180;-60
2021/04/21 05:11:49;;;;;;;15.10;13.23;;;;;;;;;;5087375;28;20251;-60
2021/04/21 05:14:17;;;;;;;14.60;13.10;;;;;;;;;;5068705;28;20180;-60
2021/04/21 05:16:55;;;;;;;15.37;13.20;;;;;;;;;;5082674;28;20226;-60
2021/04/21 05:19:24;;;;;;;15.77;14.10;;;;;;;;;;5076600;28;20184;-60
2021/04/21 05:22:06;;;;;;;14.13;12.83;;;;;;;;;;5086316;28;20259;-60
2021/04/21 05:24:55;;;;;;;16.80;15.10;;;;;;;;;;5084905;28;20211;-60
2021/04/21 05:27:52;;;;;;;16.67;14.80;;;;;;;;;;5081218;28;20192;-61
2021/04/21 05:30:38;;;;;;;16.50;14.80;;;;;;;;;;5089742;28;20179;-60
2021/04/21 05:33:22;;;;;;;15.60;14.00;;;;;;;;;;5074354;28;20235;-60
2021/04/21 05:35:55;;;;;;;15.80;14.00;;;;;;;;;;5089611;28;20209;-60
2021/04/21 05:38:39;;;;;;;16.63;14.83;;;;;;;;;;5082424;28;20536;-60
2021/04/21 05:41:21;;;;;;;16.73;15.03;;;;;;;;;;5079804;28;20661;-60
2021/04/21 05:43:47;;;;;;;16.83;14.83;;;;;;;;;;5078469;28;20176;-60
2021/04/21 05:46:32;;;;;;;17.77;15.47;;;;;;;;;;5058655;28;20230;-61
2021/04/21 05:49:04;;;;;;;16.73;13.83;;;;;;;;;;5091135;28;20176;-60
2021/04/21 05:51:30;;;;;;;16.77;14.97;;;;;;;;;;5063132;28;20183;-61
2021/04/21 05:54:05;;;;;;;16.73;15.03;;;;;;;;;;5082778;28;20186;-61
2021/04/21 05:56:45;;;;;;;17.07;15.00;;;;;;;;;;5085597;28;20179;-62
2021/04/21 05:59:30;;;;;;;18.47;16.23;;;;;;;;;;5084217;28;20183;-60
2021/04/21 06:01:56;;;;;;;16.63;14.83;;;;;;;;;;5089939;28;20188;-61
2021/04/21 06:04:25;;;;;;;16.03;14.33;;;;;;;;;;5090920;28;20265;-61
2021/04/21 06:07:12;;;;;;;19.60;15.83;;;;;;;;;;5084716;28;20210;-61
2021/04/21 06:09:39;;;;;;;17.57;15.50;;;;;;;;;;5068132;28;20194;-61
2021/04/21 06:12:09;;;;;;;18.33;16.33;;;;;;;;;;5091529;28;20180;-60
2021/04/21 06:14:36;;;;;;;18.20;15.87;;;;;;;;;;5088244;28;20592;-61
2021/04/21 06:17:02;;;;;;;19.30;16.10;;;;;;;;;;5075773;28;20616;-61
2021/04/21 06:19:28;;;;;;;17.97;16.07;;;;;;;;;;5060834;28;20275;-61
2021/04/21 06:21:55;;;;;;;18.50;16.50;;;;;;;;;;5084131;28;20184;-60
2021/04/21 06:24:29;;;;;;;17.97;15.90;;;;;;;;;;5090264;28;20184;-60
2021/04/21 06:27:08;;;;;;;17.97;15.93;;;;;;;;;;5090646;28;20947;-60
2021/04/21 06:29:34;;;;;;;18.63;16.63;;;;;;;;;;5078888;28;20180;-61
2021/04/21 06:32:04;;;;;;;18.63;16.57;;;;;;;;;;5060966;28;20215;-61
2021/04/21 06:34:31;;;;;;;18.80;16.47;;;;;;;;;;5079461;28;20185;-60
2021/04/21 06:36:58;;;;;;;20.43;16.50;;;;;;;;;;5081540;28;20251;-60
2021/04/21 06:39:25;;;;;;;20.37;16.43;;;;;;;;;;5079631;28;20177;-61
2021/04/21 06:41:58;;;;;;;19.70;17.50;;;;;;;;;;5081592;28;20180;-60
2021/04/21 06:44:46;;;;;;;22.00;16.97;;;;;;;;;;5080300;28;20177;-61
2021/04/21 06:47:20;;;;;;;22.33;18.53;;;;;;;;;;5057287;28;20177;-61
2021/04/21 06:49:57;;;;;;;19.73;17.37;;;;;;;;;;5074117;28;20187;-61
2021/04/21 06:52:23;;;;;;;21.23;17.40;;;;;;;;;;5079685;28;20182;-60
2021/04/21 06:55:15;;;;;;;20.03;17.93;;;;;;;;;;5081421;28;20234;-63
2021/04/21 06:57:42;;;;;;;20.43;17.07;;;;;;;;;;5073419;28;20199;-61
2021/04/21 07:00:12;;;;;;;20.40;18.20;;;;;;;;;;5086291;28;20179;-60
2021/04/21 07:02:45;;;;;;;20.23;17.03;;;;;;;;;;5077523;28;20214;-62
2021/04/21 07:05:31;;;;;;;20.40;17.27;;;;;;;;;;5074922;28;20203;-60
2021/04/21 07:08:03;;;;;;;20.03;17.90;;;;;;;;;;5079956;28;20176;-61
2021/04/21 07:10:29;;;;;;;20.40;18.03;;;;;;;;;;5077982;28;20233;-61
2021/04/21 07:12:55;;;;;;;24.23;18.80;;;;;;;;;;5088590;28;20574;-61
2021/04/21 07:15:21;;;;;;;23.77;19.13;;;;;;;;;;5084430;28;20780;-60
2021/04/21 07:17:49;;;;;;;20.13;17.53;;;;;;;;;;5085228;28;20213;-61
2021/04/21 07:20:15;;;;;;;21.47;18.70;;;;;;;;;;5086177;28;20732;-61
2021/04/21 07:22:42;;;;;;;22.87;20.47;;;;;;;;;;5081874;28;20557;-61
2021/04/21 07:25:09;;;;;;;21.03;18.13;;;;;;;;;;5086029;28;20557;-61
2021/04/21 07:27:35;;;;;;;21.23;18.23;;;;;;;;;;5091563;28;20594;-61
2021/04/21 07:30:01;;;;;;;21.90;18.87;;;;;;;;;;5070452;28;20188;-61
2021/04/21 07:32:28;;;;;;;20.63;17.53;;;;;;;;;;5085040;28;20223;-61
2021/04/21 07:34:58;;;;;;;22.47;18.47;;;;;;;;;;5087046;28;20242;-63
2021/04/21 07:37:33;;;;;;;26.50;20.47;;;;;;;;;;5087772;28;20176;-61
2021/04/21 07:40:00;;;;;;;26.93;20.33;;;;;;;;;;5093299;28;20640;-61
2021/04/21 07:42:26;;;;;;;28.77;21.97;;;;;;;;;;5091001;28;20237;-62
2021/04/21 07:44:53;;;;;;;27.50;21.30;;;;;;;;;;5079667;28;20216;-61
2021/04/21 07:47:20;;;;;;;32.13;22.37;;;;;;;;;;5082412;28;20529;-61
2021/04/21 07:49:53;;;;;;;25.20;21.17;;;;;;;;;;5084968;28;20659;-61
2021/04/21 07:52:23;;;;;;;24.20;21.20;;;;;;;;;;5086993;28;20179;-61
2021/04/21 07:54:50;;;;;;;26.40;22.30;;;;;;;;;;5085328;28;20192;-62
2021/04/21 07:57:17;;;;;;;25.20;22.13;;;;;;;;;;5085323;28;20208;-62
2021/04/21 07:59:44;;;;;;;30.97;22.97;;;;;;;;;;5060256;28;20180;-61
2021/04/21 08:02:18;;;;;;;24.90;21.47;;;;;;;;;;5060983;28;20187;-62
2021/04/21 08:04:52;;;;;;;23.33;20.67;;;;;;;;;;5081147;28;20200;-62
2021/04/21 08:07:28;;;;;;;24.70;20.33;;;;;;;;;;5083696;28;20187;-61
2021/04/21 08:09:54;;;;;;;22.60;19.73;;;;;;;;;;5091194;28;20241;-62
2021/04/21 08:12:20;;;;;;;24.37;20.10;;;;;;;;;;5093178;28;20662;-61
2021/04/21 08:14:48;;;;;;;21.57;19.30;;;;;;;;;;5091059;28;20183;-61
2021/04/21 08:17:15;;;;;;;21.87;19.57;;;;;;;;;;5084138;28;20654;-62
2021/04/21 08:19:42;;;;;;;23.63;21.10;;;;;;;;;;5087700;28;20184;-61
2021/04/21 08:22:09;;;;;;;22.67;20.27;;;;;;;;;;5071516;28;20184;-62
2021/04/21 08:24:39;;;;;;;23.73;20.93;;;;;;;;;;5067670;28;20192;-61
2021/04/21 08:27:06;;;;;;;22.23;19.83;;;;;;;;;;5085741;28;20172;-61
2021/04/21 08:29:32;;;;;;;22.00;19.10;;;;;;;;;;5061692;28;20180;-61
2021/04/21 08:31:58;;;;;;;21.37;19.13;;;;;;;;;;5081078;28;20753;-62
2021/04/21 08:34:24;;;;;;;21.63;18.93;;;;;;;;;;5063926;28;20330;-61
2021/04/21 08:36:51;;;;;;;22.40;19.90;;;;;;;;;;5082542;28;20623;-61
2021/04/21 08:39:17;;;;;;;22.27;18.97;;;;;;;;;;5084268;28;20172;-62
2021/04/21 08:41:44;;;;;;;21.30;19.00;;;;;;;;;;5074092;28;20228;-64
2021/04/21 08:44:10;;;;;;;25.55;22.92;;;;;;;;;;5071233;28;20466;-61
2021/04/21 08:46:37;;;;;;;24.03;20.10;;;;;;;;;;5063020;28;20830;-61
2021/04/21 08:49:04;;;;;;;24.37;19.93;;;;;;;;;;5076805;28;20214;-62
2021/04/21 08:51:30;;;;;;;26.23;20.77;;;;;;;;;;5081724;28;20202;-62
2021/04/21 08:54:04;;;;;;;22.67;20.27;;;;;;;;;;5090189;28;20176;-61
2021/04/21 08:56:31;;;;;;;25.40;21.23;;;;;;;;;;5091529;28;20184;-61
2021/04/21 08:58:57;;;;;;;23.70;19.67;;;;;;;;;;5090132;28;20173;-61
2021/04/21 09:01:24;;;;;;;25.97;20.83;;;;;;;;;;5084454;28;20189;-62
2021/04/21 09:03:50;;;;;;;23.13;19.23;;;;;;;;;;5058896;28;21582;-61
2021/04/21 09:06:18;;;;;;;23.57;19.70;;;;;;;;;;5080329;28;20195;-61
2021/04/21 09:08:45;;;;;;;22.77;19.40;;;;;;;;;;5063703;28;20190;-62
2021/04/21 09:11:11;;;;;;;24.97;18.13;;;;;;;;;;5088764;28;20527;-61
2021/04/21 09:13:37;;;;;;;27.03;18.73;;;;;;;;;;5089487;28;20179;-61
2021/04/21 09:16:04;;;;;;;24.97;19.47;;;;;;;;;;5082576;28;20180;-63
2021/04/21 09:18:31;;;;;;;24.40;18.70;;;;;;;;;;5079055;28;20221;-61
2021/04/21 09:20:57;;;;;;;21.70;17.90;;;;;;;;;;5078778;28;20602;-62
2021/04/21 09:23:23;;;;;;;27.40;18.40;;;;;;;;;;5084397;28;20202;-61
2021/04/21 09:25:50;;;;;;;22.93;16.73;;;;;;;;;;5086003;28;20200;-61
2021/04/21 09:28:21;;;;;;;23.53;17.30;;;;;;;;;;5068848;28;20581;-61
2021/04/21 09:30:54;;;;;;;22.10;16.83;;;;;;;;;;5077168;28;20180;-61
2021/04/21 09:33:20;;;;;;;20.97;16.67;;;;;;;;;;5081355;28;20610;-61
2021/04/21 09:35:47;;;;;;;21.23;15.20;;;;;;;;;;5063523;28;20626;-61
2021/04/21 09:38:17;;;;;;;17.63;14.70;;;;;;;;;;5083919;28;20200;-61
2021/04/21 09:40:53;;;;;;;20.17;14.53;;;;;;;;;;5091409;28;20210;-61
2021/04/21 09:43:22;;;;;;;17.03;13.90;;;;;;;;;;5070983;28;20218;-62
2021/04/21 09:45:49;;;;;;;15.40;13.40;;;;;;;;;;5085758;28;20188;-60
2021/04/21 09:48:19;;;;;;;17.27;13.90;;;;;;;;;;5077674;28;21914;-61
2021/04/21 09:50:55;;;;;;;15.93;12.87;;;;;;;;;;5079768;28;20197;-62
2021/04/21 09:53:22;;;;;;;16.43;13.23;;;;;;;;;;5085048;28;20254;-61
2021/04/21 09:56:02;;;;;;;16.43;12.30;;;;;;;;;;5087293;28;20172;-61
2021/04/21 09:58:36;;;;;;;15.10;12.43;;;;;;;;;;5070527;28;20655;-61
2021/04/21 10:01:16;;;;;;;16.67;11.57;;;;;;;;;;5082119;28;20183;-61
2021/04/21 10:03:43;;;;;;;13.50;11.37;;;;;;;;;;5079781;28;20187;-61
2021/04/21 10:06:21;;;;;;;14.87;11.70;;;;;;;;;;5081715;28;20286;-61
2021/04/21 10:08:48;;;;;;;14.03;11.23;;;;;;;;;;5089144;28;20183;-61
2021/04/21 10:11:14;;;;;;;14.47;10.77;;;;;;;;;;5091135;28;20187;-62
2021/04/21 10:13:44;;;;;;;12.03;10.43;;;;;;;;;;5082349;28;20184;-62
2021/04/21 10:16:11;;;;;;;11.93;10.40;;;;;;;;;;5076817;28;20214;-61
2021/04/21 10:18:38;;;;;;;14.77;10.77;;;;;;;;;;5080612;28;20171;-61
2021/04/21 10:21:04;;;;;;;12.10;10.27;;;;;;;;;;5061697;28;20188;-62
2021/04/21 10:23:31;;;;;;;13.57;10.70;;;;;;;;;;5082833;28;20194;-62
2021/04/21 10:26:23;;;;;;;16.50;10.40;;;;;;;;;;5084978;28;20304;-61
2021/04/21 10:28:49;;;;;;;12.30;10.07;;;;;;;;;;5084913;28;20183;-61
2021/04/21 10:31:16;;;;;;;12.43;10.63;;;;;;;;;;5081390;28;20199;-61
2021/04/21 10:33:43;;;;;;;13.57;9.77;;;;;;;;;;5080233;28;20234;-63
2021/04/21 10:36:09;;;;;;;11.97;9.17;;;;;;;;;;5058007;28;20202;-62
2021/04/21 10:38:37;;;;;;;12.30;8.93;;;;;;;;;;5082345;28;20186;-62
2021/04/21 10:41:21;;;;;;;11.57;9.37;;;;;;;;;;5085213;28;20188;-64
2021/04/21 10:43:47;;;;;;;9.77;8.77;;;;;;;;;;5066550;28;20172;-62
2021/04/21 10:46:14;;;;;;;11.53;9.43;;;;;;;;;;5082615;28;20662;-62
2021/04/21 10:48:41;;;;;;;11.40;8.77;;;;;;;;;;5062079;28;20519;-62
2021/04/21 10:51:25;;;;;;;12.23;9.03;;;;;;;;;;5079257;28;20187;-61
2021/04/21 10:53:51;;;;;;;13.17;8.40;;;;;;;;;;5080418;28;20179;-63
2021/04/21 10:56:21;;;;;;;11.67;9.27;;;;;;;;;;5079153;28;20180;-61
2021/04/21 10:58:53;;;;;;;10.97;8.83;;;;;;;;;;5082492;28;20184;-61
2021/04/21 11:01:29;;;;;;;11.17;8.70;;;;;;;;;;5085952;28;20707;-62
2021/04/21 11:03:55;;;;;;;12.07;8.13;;;;;;;;;;5080261;28;20195;-63
2021/04/21 11:06:39;;;;;;;10.97;9.03;;;;;;;;;;5091058;28;20203;-61
2021/04/21 11:09:06;;;;;;;11.07;8.27;;;;;;;;;;5074319;28;20183;-61
2021/04/21 11:11:40;;;;;;;8.77;7.90;;;;;;;;;;5089858;28;20217;-61
2021/04/21 11:14:08;;;;;;;9.73;8.47;;;;;;;;;;5071714;28;20172;-61
2021/04/21 11:16:35;;;;;;;10.57;8.17;;;;;;;;;;5085486;28;20183;-61
2021/04/21 11:19:19;;;;;;;10.10;8.73;;;;;;;;;;5081276;28;20323;-61
2021/04/21 11:22:08;;;;;;;12.80;8.43;;;;;;;;;;5086260;28;20183;-61
2021/04/21 11:24:38;;;;;;;9.50;8.50;;;;;;;;;;5055874;28;20184;-62
2021/04/21 11:27:04;;;;;;;10.70;7.80;;;;;;;;;;5088823;28;20180;-62
2021/04/21 11:29:31;;;;;;;9.33;8.33;;;;;;;;;;5089314;28;20181;-61
2021/04/21 11:31:57;;;;;;;9.97;8.43;;;;;;;;;;5085162;28;20219;-62
2021/04/21 11:34:32;;;;;;;8.53;7.73;;;;;;;;;;5087708;28;20168;-61
2021/04/21 11:37:05;;;;;;;11.07;8.13;;;;;;;;;;5086413;28;20194;-63
2021/04/21 11:39:43;;;;;;;10.50;8.87;;;;;;;;;;5086203;28;20168;-61
2021/04/21 11:42:24;;;;;;;10.63;8.60;;;;;;;;;;5082370;28;20167;-61
2021/04/21 11:44:50;;;;;;;9.93;8.17;;;;;;;;;;5087781;28;20207;-62
2021/04/21 11:47:37;;;;;;;9.70;8.10;;;;;;;;;;5088201;28;20191;-61
2021/04/21 11:50:07;;;;;;;8.93;7.97;;;;;;;;;;5037415;28;20203;-61
2021/04/21 11:52:47;;;;;;;9.87;8.30;;;;;;;;;;5087599;28;20241;-63
2021/04/21 11:55:33;;;;;;;9.33;7.57;;;;;;;;;;5064297;28;20222;-62
2021/04/21 11:58:02;;;;;;;10.87;7.80;;;;;;;;;;5085379;28;20226;-61
2021/04/21 12:00:33;;;;;;;8.83;7.93;;;;;;;;;;5088847;28;20218;-61
2021/04/21 12:02:59;;;;;;;9.70;7.47;;;;;;;;;;5086010;28;20168;-61
2021/04/21 12:05:27;;;;;;;10.67;8.33;;;;;;;;;;5088154;28;20728;-61
2021/04/21 12:07:56;;;;;;;9.43;7.47;;;;;;;;;;5086108;28;20179;-61
2021/04/21 12:10:22;;;;;;;8.00;7.17;;;;;;;;;;5085903;28;20164;-61
2021/04/21 12:12:48;;;;;;;8.30;7.30;;;;;;;;;;5066661;28;20179;-62
2021/04/21 12:15:15;;;;;;;10.17;6.87;;;;;;;;;;5088172;28;20234;-61
2021/04/21 12:17:51;;;;;;;8.57;6.83;;;;;;;;;;5072725;28;20175;-61
2021/04/21 12:20:35;;;;;;;8.83;7.00;;;;;;;;;;5081344;28;20227;-64
2021/04/21 12:23:01;;;;;;;8.37;6.90;;;;;;;;;;5082742;28;20184;-61
2021/04/21 12:25:29;;;;;;;7.73;6.93;;;;;;;;;;5070183;28;20670;-61
2021/04/21 12:27:57;;;;;;;9.50;6.97;;;;;;;;;;5084680;28;20229;-64
2021/04/21 12:30:25;;;;;;;9.07;7.13;;;;;;;;;;5090623;28;20211;-62
2021/04/21 12:32:51;;;;;;;9.63;7.43;;;;;;;;;;5084372;28;20554;-62
2021/04/21 12:35:20;;;;;;;8.23;7.03;;;;;;;;;;5087797;28;20199;-61
2021/04/21 12:37:54;;;;;;;8.50;7.40;;;;;;;;;;5071280;28;20543;-63
2021/04/21 12:40:22;;;;;;;9.93;7.93;;;;;;;;;;5092695;28;20174;-62
2021/04/21 12:42:49;;;;;;;9.70;7.63;;;;;;;;;;5082572;28;20183;-63
2021/04/21 12:45:35;;;;;;;10.07;7.23;;;;;;;;;;5065991;28;20210;-62
2021/04/21 12:48:18;;;;;;;8.90;7.30;;;;;;;;;;5087366;28;20222;-61
2021/04/21 12:50:47;;;;;;;9.00;7.70;;;;;;;;;;5066641;28;20199;-61
2021/04/21 12:53:13;;;;;;;9.93;7.90;;;;;;;;;;5088175;28;20639;-62
2021/04/21 12:55:40;;;;;;;9.90;8.93;;;;;;;;;;5082481;28;20417;-61
2021/04/21 12:58:06;;;;;;;10.43;8.53;;;;;;;;;;5085779;28;20197;-61
2021/04/21 13:00:33;;;;;;;10.33;8.23;;;;;;;;;;5090363;28;20652;-61
2021/04/21 13:02:59;;;;;;;10.23;7.93;;;;;;;;;;5065811;28;20180;-61
2021/04/21 13:05:44;;;;;;;9.80;8.80;;;;;;;;;;5088769;28;20270;-61
2021/04/21 13:08:19;;;;;;;10.77;8.60;;;;;;;;;;5089961;28;20168;-62
2021/04/21 13:10:45;;;;;;;11.27;9.43;;;;;;;;;;5091128;28;20278;-63
2021/04/21 13:13:11;;;;;;;8.57;7.70;;;;;;;;;;5089315;28;20176;-61
2021/04/21 13:15:38;;;;;;;9.87;8.87;;;;;;;;;;5090198;28;20246;-61
2021/04/21 13:18:11;;;;;;;10.10;9.00;;;;;;;;;;5072032;28;20195;-61
2021/04/21 13:20:40;;;;;;;9.53;8.47;;;;;;;;;;5048746;28;20179;-63
2021/04/21 13:23:15;;;;;;;10.93;8.97;;;;;;;;;;5084484;28;20225;-62
2021/04/21 13:25:55;;;;;;;11.40;9.70;;;;;;;;;;5070387;28;20253;-61
2021/04/21 13:28:21;;;;;;;10.60;9.50;;;;;;;;;;5070796;28;20706;-61
2021/04/21 13:31:20;;;;;;;10.33;9.23;;;;;;;;;;5070933;28;20180;-61
2021/04/21 13:33:46;;;;;;;12.00;10.23;;;;;;;;;;5064753;28;20234;-62
2021/04/21 13:36:13;;;;;;;13.43;10.20;;;;;;;;;;5086229;28;20600;-61
2021/04/21 13:38:40;;;;;;;11.77;9.57;;;;;;;;;;5085259;28;20188;-61
2021/04/21 13:41:07;;;;;;;11.83;9.77;;;;;;;;;;5087585;28;20176;-61
2021/04/21 13:43:34;;;;;;;9.93;8.93;;;;;;;;;;5087620;28;20176;-61
2021/04/21 13:46:00;;;;;;;9.90;8.80;;;;;;;;;;5089770;28;20195;-61
2021/04/21 13:48:26;;;;;;;11.33;9.30;;;;;;;;;;5086949;28;20258;-61
2021/04/21 13:50:53;;;;;;;11.30;9.53;;;;;;;;;;5087866;28;20207;-61
2021/04/21 13:53:19;;;;;;;14.30;9.63;;;;;;;;;;5085082;28;20683;-61
2021/04/21 13:55:46;;;;;;;11.13;9.63;;;;;;;;;;5089233;28;20720;-61
2021/04/21 13:58:12;;;;;;;11.43;9.60;;;;;;;;;;5084742;28;20532;-61
2021/04/21 14:00:39;;;;;;;11.00;9.80;;;;;;;;;;5068793;28;20229;-62
2021/04/21 14:03:05;;;;;;;11.77;10.57;;;;;;;;;;5083698;28;20175;-61
2021/04/21 14:05:32;;;;;;;10.47;9.47;;;;;;;;;;5089895;28;20218;-61
2021/04/21 14:07:58;;;;;;;15.73;9.77;;;;;;;;;;5087830;28;20234;-61
2021/04/21 14:10:24;;;;;;;10.47;8.97;;;;;;;;;;5086445;28;20169;-62
2021/04/21 14:12:51;;;;;;;12.33;9.83;;;;;;;;;;5067704;28;20168;-60
2021/04/21 14:15:17;;;;;;;11.13;9.20;;;;;;;;;;5072063;28;20233;-61
2021/04/21 14:17:43;;;;;;;10.13;9.13;;;;;;;;;;5089998;28;20183;-61
2021/04/21 14:20:11;;;;;;;10.20;9.10;;;;;;;;;;5068127;28;20198;-61
2021/04/21 14:22:38;;;;;;;10.57;8.93;;;;;;;;;;5088454;28;20195;-63
2021/04/21 14:25:05;;;;;;;11.10;10.00;;;;;;;;;;5067965;28;20205;-62
2021/04/21 14:27:31;;;;;;;12.33;10.03;;;;;;;;;;5088792;28;20692;-62
2021/04/21 14:29:57;;;;;;;10.03;8.50;;;;;;;;;;5087843;28;20194;-61
2021/04/21 14:32:24;;;;;;;10.87;9.60;;;;;;;;;;5081351;28;20310;-61
2021/04/21 14:34:50;;;;;;;11.57;9.23;;;;;;;;;;5071023;28;20182;-61
2021/04/21 14:37:16;;;;;;;9.57;8.67;;;;;;;;;;5089168;28;20167;-62
2021/04/21 14:39:42;;;;;;;10.90;9.80;;;;;;;;;;5066328;28;20688;-61
2021/04/21 14:42:09;;;;;;;10.00;8.93;;;;;;;;;;5087444;28;20172;-61